»·PEaware :: N1187 KPSP-KSNA

N1187 :: KPSP-KSNA

FLIGHT INFORMATION

Flight Status: Arrived
Operator: Privately registered:
United States
More flights under this callsign
Pilot: Anonymous 12254 (12254)
Aircraft: PILATUS PC-12 EAGLE
(PC12)
More flights by this aircraft type
Origin: KPSP Palm Springs Intl
United States
Destination: KSNA John Wayne-Orange Co
United States
More flights between these airports :: More routes between these airports
Route: +CATH1 PSP V388 DEWAY FRETS KAYOH STAR
File this flight plan on PilotEdge
Remarks: TEC Route PSPP8B
Altitude:
(Current/Filed)
12,000ft
Speed:
(Current/Filed)
200kts
Departed: 13-Apr-19 05:02 PM
Arrived: 13-Apr-19 05:37 PM
Distance/Time
Traveled:
69nm/0:35
Distance/Time
To Go:
Arrived

Flight Plot

Page will automatically refresh every two minutes.

Flight plan parsing failed; only flown route is shown


Map Options




Map Legend


Flown Route
Filed Route
Departure Airport
Arrival Airport
Navaid (VOR, NDB)
Fix

Horizontal Profiles

Position Reports

Time Latitude Longitude Heading Altitude Ground
Speed
13-Apr-19 16:14 33.829014 -116.511874 90 431ft 0kts
13-Apr-19 16:15 33.829014 -116.511874 90 431ft 0kts
13-Apr-19 16:16 33.829014 -116.511874 90 431ft 0kts
13-Apr-19 16:17 33.829014 -116.511874 90 431ft 0kts
13-Apr-19 16:18 33.829014 -116.511874 90 431ft 0kts
13-Apr-19 16:19 33.829014 -116.511874 90 431ft 0kts
13-Apr-19 16:20 33.829014 -116.511874 90 431ft 0kts
13-Apr-19 16:21 33.829014 -116.511874 90 431ft 0kts
13-Apr-19 16:22 33.829014 -116.511874 90 431ft 0kts
13-Apr-19 16:23 33.829014 -116.511874 90 431ft 0kts
13-Apr-19 16:24 33.829014 -116.511874 90 431ft 0kts
13-Apr-19 16:25 33.829014 -116.511874 90 431ft 0kts
13-Apr-19 16:26 33.829014 -116.511874 90 431ft 0kts
13-Apr-19 16:27 33.829014 -116.511874 90 431ft 0kts
13-Apr-19 16:28 33.829014 -116.511874 90 431ft 0kts
13-Apr-19 16:29 33.829014 -116.511874 90 431ft 0kts
13-Apr-19 16:30 33.829014 -116.511874 90 431ft 0kts
13-Apr-19 16:31 33.829014 -116.511874 90 431ft 0kts
13-Apr-19 16:32 33.829014 -116.511874 90 431ft 0kts
13-Apr-19 16:33 33.829014 -116.511874 90 431ft 0kts
13-Apr-19 16:34 33.829014 -116.511874 90 431ft 0kts
13-Apr-19 16:35 33.829014 -116.511874 90 431ft 0kts
13-Apr-19 16:36 33.829014 -116.511874 90 431ft 0kts
13-Apr-19 16:37 33.829014 -116.511874 90 431ft 0kts
13-Apr-19 16:38 33.829014 -116.511874 90 431ft 0kts
13-Apr-19 16:39 33.829014 -116.511874 90 431ft 0kts
13-Apr-19 16:40 33.829014 -116.511874 90 431ft 0kts
13-Apr-19 16:41 33.829014 -116.511874 90 431ft 0kts
13-Apr-19 16:42 33.829014 -116.511874 90 431ft 0kts
13-Apr-19 16:43 33.829014 -116.511874 90 431ft 0kts
13-Apr-19 16:44 33.829014 -116.511874 90 431ft 0kts
13-Apr-19 16:45 33.829014 -116.511874 90 431ft 0kts
13-Apr-19 16:46 33.829014 -116.511874 90 431ft 0kts
13-Apr-19 16:47 33.829014 -116.511874 90 431ft 0kts
13-Apr-19 16:48 33.829014 -116.511874 90 431ft 0kts
13-Apr-19 16:49 33.829014 -116.511874 90 431ft 0kts
13-Apr-19 16:50 33.829014 -116.511874 90 431ft 0kts
13-Apr-19 16:51 33.829014 -116.511874 90 431ft 0kts
13-Apr-19 16:52 33.829014 -116.511874 90 431ft 0kts
13-Apr-19 16:53 33.829014 -116.511874 90 431ft 0kts
13-Apr-19 16:54 33.829014 -116.511874 90 431ft 0kts
13-Apr-19 16:55 33.829014 -116.511874 90 431ft 0kts
13-Apr-19 16:57 33.829014 -116.511874 90 431ft 0kts
13-Apr-19 16:58 33.828022 -116.508334 151 423ft 12kts
13-Apr-19 16:59 33.824365 -116.504959 142 413ft 22kts
13-Apr-19 17:00 33.819169 -116.500355 141 398ft 5kts
13-Apr-19 17:01 33.818536 -116.499075 86 396ft 0kts
13-Apr-19 17:02 33.825495 -116.503940 324 414ft 117kts
13-Apr-19 17:03 33.859357 -116.536886 319 1420ft 181kts
13-Apr-19 17:04 33.901326 -116.568204 11 3125ft 183kts
13-Apr-19 17:05 33.907243 -116.518376 116 4889ft 184kts
13-Apr-19 17:06 33.884064 -116.463484 114 6692ft 184kts
13-Apr-19 17:07 33.861109 -116.408652 114 8485ft 184kts
13-Apr-19 17:08 33.837902 -116.354048 114 10234ft 186kts
13-Apr-19 17:09 33.813708 -116.297334 115 11832ft 194kts
13-Apr-19 17:10 33.775836 -116.242610 180 11986ft 248kts
13-Apr-19 17:11 33.758828 -116.299892 317 11989ft 239kts
13-Apr-19 17:12 33.807346 -116.355921 316 11990ft 243kts
13-Apr-19 17:13 33.855734 -116.413006 316 11997ft 244kts
13-Apr-19 17:14 33.884355 -116.486328 289 11997ft 247kts
13-Apr-19 17:15 33.904572 -116.565835 289 11997ft 247kts
13-Apr-19 17:16 33.924612 -116.644934 289 11997ft 247kts
13-Apr-19 17:17 33.944675 -116.724494 287 12018ft 247kts
13-Apr-19 17:18 33.933884 -116.806936 257 12057ft 252kts
13-Apr-19 17:19 33.915825 -116.888767 257 12079ft 253kts
13-Apr-19 17:20 33.897748 -116.970496 257 12076ft 253kts
13-Apr-19 17:21 33.879468 -117.052759 256 12076ft 254kts
13-Apr-19 17:22 33.865926 -117.113451 256 12080ft 255kts
13-Apr-19 17:23 33.847957 -117.193791 256 11404ft 235kts
13-Apr-19 17:23 33.834227 -117.254900 256 10559ft 221kts
13-Apr-19 17:25 33.815929 -117.336396 256 9340ft 214kts
13-Apr-19 17:25 33.802963 -117.393997 256 8413ft 213kts
13-Apr-19 17:27 33.788297 -117.468661 283 8039ft 177kts
13-Apr-19 17:28 33.806510 -117.527919 291 6945ft 197kts
13-Apr-19 17:28 33.823485 -117.579774 291 6107ft 197kts
13-Apr-19 17:30 33.844874 -117.644968 291 5839ft 177kts
13-Apr-19 17:30 33.860256 -117.693407 291 5080ft 191kts
13-Apr-19 17:31 33.859817 -117.753107 231 4206ft 202kts
13-Apr-19 17:32 33.835462 -117.785486 206 3629ft 207kts
13-Apr-19 17:33 33.781414 -117.801134 210 3083ft 192kts
13-Apr-19 17:35 33.728001 -117.835291 211 1112ft 163kts
13-Apr-19 17:35 33.698093 -117.854636 207 457ft 133kts
13-Apr-19 17:36 33.674153 -117.870092 245 60ft 19kts
13-Apr-19 17:38 33.672622 -117.873018 24 60ft 1kts
13-Apr-19 17:38 33.672654 -117.873000 23 60ft 0kts
13-Apr-19 17:39 33.672654 -117.873000 23 60ft 0kts
13-Apr-19 17:40 33.672654 -117.873000 23 60ft 0kts

Navigation Log

Ident Type
Flight plan parsing failed, navigation log unavailable